ADDS METAR Data INFO
IDs: Format: Raw Decoded Include TAF

Data at: 2029 UTC 20 Jul 2018

K79J 201956Z AUTO VRB04KT 10SM SCT030 34/23 A2995 RMK AO2 SLP136 T03390228
K79J 201856Z AUTO 34005KT 10SM SCT030 33/23 A2996 RMK AO2 SLP140 T03330228
K79J 201838Z AUTO 36006KT 10SM SCT028 33/23 A2997 RMK AO2 T03280228
K79J 201756Z AUTO VRB04KT 10SM BKN026 BKN031 32/23 A2997 RMK AO2 SLP144 T03220228 10333 20250 58012
K79J 201737Z AUTO VRB03KT 10SM SCT026 32/23 A2997 RMK AO2 T03220228
K79J 201656Z AUTO 01006KT 10SM BKN017 BKN024 OVC029 30/23 A2998 RMK AO2 SLP148 T03000228
K79J 201556Z AUTO 30004KT 10SM FEW012 OVC025 28/23 A3000 RMK AO2 SLP153 T02830228
K79J 201540Z AUTO 00000KT 10SM SCT008 SCT018 OVC027 27/23 A3000 RMK AO2 T02720233
K79J 201510Z AUTO 00000KT 10SM BKN008 OVC016 27/23 A3000 RMK AO2 CIG 007V013 T02670228
K79J 201456Z AUTO 00000KT 10SM OVC016 27/23 A3001 RMK AO2 SLP155 T02670233 51019
K79J 201431Z AUTO 00000KT 10SM FEW006 OVC012 26/23 A3000 RMK AO2 T02610228
K79J 201356Z AUTO 00000KT 10SM OVC006 26/23 A3000 RMK AO2 CIG 004V010 SLP154 T02610228
K79J 201349Z AUTO 00000KT 10SM OVC006 26/23 A3000 RMK AO2 CIG 004V010 T02560228
K79J 201256Z AUTO 06003KT 9SM OVC004 25/23 A2997 RMK AO2 SLP144 T02500228
K79J 201247Z AUTO 05003KT 8SM OVC002 25/23 A2997 RMK AO2 T02500228
K79J 201240Z AUTO 05004KT 2 1/2SM BR OVC002 25/23 A2997 RMK AO2 T02500228
K79J 201224Z AUTO 06004KT 1/2SM FG VV002 24/23 A2996 RMK AO2 T02440228
K79J 201156Z AUTO 06004KT 1/4SM FG VV002 24/23 A2995 RMK AO2 SLP137 70031 T02440228 10250 20244 51015
K79J 201115Z AUTO 04003KT 1/4SM FG VV002 24/22 A2994 RMK AO2 T02440222
K79J 201103Z AUTO 35005KT 1/2SM FG VV002 24/22 A2994 RMK AO2 T02440222
K79J 201056Z AUTO 02003KT 1/4SM FG VV002 24/23 A2994 RMK AO2 SLP133 T02440228
K79J 201034Z AUTO 04003KT 1/2SM FG VV002 24/23 A2993 RMK AO2 T02440228
K79J 201011Z AUTO 00000KT 1SM BR VV003 24/23 A2993 RMK AO2 T02440228
K79J 201001Z AUTO 00000KT 1 1/4SM BR OVC002 24/23 A2992 RMK AO2 T02440228
K79J 200921Z AUTO 00000KT 1/4SM FG VV002 24/23 A2991 RMK AO2 T02440228
K79J 200856Z AUTO 00000KT 1/2SM FG VV002 24/23 A2991 RMK AO2 SLP121 T02440228 55010
K79J 200828Z AUTO 00000KT 1/4SM FG VV002 24/23 A2990 RMK AO2 T02440228
K79J 200815Z AUTO 00000KT 3/4SM BR VV002 24/23 A2990 RMK AO2 T02440228
K79J 200759Z AUTO 13003KT 2 1/2SM BR BKN003 24/22 A2989 RMK AO2 T02440222
K79J 200708Z AUTO 00000KT 8SM SCT003 25/23 A2992 RMK AO2 T02500228
K79J 200656Z AUTO 28003KT 9SM BKN003 25/23 A2992 RMK AO2 SLP128 T02500228
K79J 200629Z AUTO 00000KT 9SM BKN003 25/23 A2993 RMK AO2 T02500228
K79J 200621Z AUTO 00000KT 9SM BKN004 OVC013 25/23 A2993 RMK AO2 T02500228
K79J 200609Z AUTO 06004KT 9SM FEW004 BKN012 25/23 A2993 RMK AO2 T02500228
K79J 200556Z AUTO 05005KT 10SM OVC012 26/23 A2994 RMK AO2 SLP132 60001 T02560228 10261 20250 58002
K79J 200546Z AUTO 04004KT 10SM FEW004 OVC010 26/23 A2994 RMK AO2 T02560233
K79J 200539Z AUTO 05005KT 10SM BKN004 OVC010 26/23 A2994 RMK AO2 CIG 002V007 T02560233
K79J 200518Z AUTO 06007KT 5SM BR OVC002 26/23 A2994 RMK AO2 T02560233
K79J 200508Z AUTO 05006KT 2 1/2SM BR OVC002 26/23 A2994 RMK AO2 T02560233
K79J 200456Z AUTO 06003KT 1 1/2SM BR OVC002 26/23 A2995 RMK AO2 VIS 1V2 SLP136 T02560233 403560244
K79J 200438Z AUTO 04003KT 1 1/4SM BR OVC002 26/23 A2995 RMK AO2 T02560233
K79J 200427Z AUTO 05003KT 3/4SM BR VV002 26/23 A2995 RMK AO2 T02560233
K79J 200424Z AUTO 05003KT 1 1/4SM BR OVC002 26/23 A2995 RMK AO2 T02560233
K79J 200356Z AUTO 08003KT 7SM BKN002 26/23 A2994 RMK AO2 SLP132 T02560233
K79J 200326Z AUTO 00000KT 10SM SCT002 26/24 A2995 RMK AO2 T02610239
K79J 200256Z AUTO 13003KT 10SM FEW090 SCT110 26/24 A2994 RMK AO2 RAB09E50 SLP134 P0001 60001 T02560239 50008
K79J 200238Z AUTO 00000KT 10SM -RA SCT017 SCT070 BKN095 26/24 A2994 RMK AO2 RAB09 P0001 T02610239
K79J 200226Z AUTO 00000KT 10SM -RA SCT009 BKN018 OVC120 26/24 A2994 RMK AO2 RAB09 P0001 T02610239
K79J 200204Z AUTO 31006KT 10SM SCT005 OVC009 26/24 A2995 RMK AO2 CIG 008V012 T02610239
K79J 200156Z AUTO 30005KT 10SM BKN005 26/24 A2995 RMK AO2 TSE08 CIG 003V009 SLP138 T02610239
K79J 200136Z AUTO 00000KT 10SM FEW004 26/23 A2994 RMK AO2 TSE08 T02610233
K79J 200114Z AUTO 19003KT 10SM FEW006 FEW120 26/23 A2992 RMK AO2 TSE08 T02560233
K79J 200056Z AUTO 00000KT 10SM TS SCT007 BKN110 26/23 A2992 RMK AO2 RAE14 TSB10E26B52 SLP125 P0000 T02560233
K79J 200046Z AUTO 14004KT 10SM SCT007 BKN100 BKN120 26/24 A2992 RMK AO2 RAE14 TSB10E26 P0000 T02610239
K79J 200032Z AUTO 08003KT 10SM FEW080 BKN100 26/23 A2992 RMK AO2 RAE14 TSB10E26 P0000 T02610233
K79J 200016Z AUTO 00000KT 10SM TS FEW013 BKN095 OVC110 26/23 A2993 RMK AO2 RAE14 TSB10 P0000 T02610233
K79J 192356Z AUTO 13006KT 5SM -RA BR FEW006 BKN060 OVC090 26/24 A2992 RMK AO2 RAB2258E08B17 TSE52 SLP128 P0030 60030 T02610239 10356 20256 53017
K79J 192338Z AUTO 10010KT 3SM -TSRA BR FEW010 BKN033 OVC085 26/24 A2992 RMK AO2 RAB2258E08B17 P0029 T02610239
K79J 192333Z AUTO 10008KT 1 1/2SM TSRA BR SCT010 BKN021 OVC042 26/24 A2992 RMK AO2 RAB2258E08B17 P0028 T02610239
K79J 192323Z AUTO 09010KT 1SM +TSRA SCT009 BKN023 OVC047 27/24 A2993 RMK AO2 RAB2258E08B17 P0023 T02670239
K79J 192256Z AUTO 07017G25KT 10SM TS FEW015 BKN036 OVC060 28/23 A2990 RMK AO2 TSB32 SLP120 T02780228
K79J 192238Z AUTO 08012KT 10SM TS BKN034 OVC043 29/22 A2990 RMK AO2 TSB32 T02940222
K79J 192156Z AUTO 30008KT 10SM FEW048 FEW065 34/22 A2987 RMK AO2 SLP109 T03440222
K79J 192056Z AUTO 31010KT 10SM SCT036 SCT049 BKN060 36/23 A2987 RMK AO2 SLP109 T03560228 56017
K79J 191956Z AUTO 28005KT 10SM FEW042 35/23 A2989 RMK AO2 SLP115 T03500228
K79J 191856Z AUTO 26006KT 10SM SCT038 BKN047 34/22 A2990 RMK AO2 SLP120 T03390222
K79J 191756Z AUTO 10SM FEW040 34/23 A2992 RMK AO2 SLP128 T03440233 10344 20250 58010
K79J 191656Z AUTO 10SM CLR 33/22 A2995 RMK AO2 SLP136 T03280222
K79J 191556Z AUTO 10SM SCT022 33/23 A2996 RMK AO2 SLP141 T03330228
K79J 191456Z AUTO 00000KT 10SM FEW017 31/23 A2995 RMK AO2 SLP138 T03110233 58002
K79J 191356Z AUTO 28003KT 10SM CLR 29/23 A2996 RMK AO2 SLP138 T02890228
K79J 191309Z AUTO 30005KT 8SM SCT003 26/23 A2996 RMK AO2 T02610233
K79J 191256Z AUTO 30003KT 8SM BKN003 26/23 A2996 RMK AO2 SLP140 T02610233
K79J 191231Z AUTO 30004KT 5SM BR OVC002 26/23 A2996 RMK AO2 T02560233
K79J 191222Z AUTO 28004KT 2SM BR OVC002 26/23 A2996 RMK AO2 VIS 1V5 T02560233
K79J 191213Z AUTO 24003KT 1/2SM FG VV002 25/23 A2996 RMK AO2 T02500233
K79J 191156Z AUTO 00000KT 1/4SM FG VV002 25/23 A2996 RMK AO2 SLP140 70001 T02500233 10256 20244 51016
K79J 191128Z AUTO 26004KT 1/4SM FG OVC002 25/23 A2996 RMK AO2 T02500228
K79J 191122Z AUTO 25003KT 1SM BR BKN002 25/23 A2995 RMK AO2 T02500228
K79J 191114Z AUTO 24003KT 5SM BR BKN003 25/23 A2995 RMK AO2 T02500228
K79J 191106Z AUTO 24003KT 6SM BR SCT003 25/23 A2995 RMK AO2 T02500228
K79J 191056Z AUTO 00000KT 6SM BR CLR 24/23 A2995 RMK AO2 SLP135 T02440228
K79J 190956Z AUTO 00000KT 9SM CLR 25/23 A2993 RMK AO2 SLP130 T02500228
K79J 190856Z AUTO 00000KT 7SM CLR 25/23 A2991 RMK AO2 SLP124 T02500228 53001